Time;durP1;ratioP1;P1;durP2;ratioP2;P2;SDS_P1;SDS_P2;PMS_P1;PMS_P2;Temp;Humidity;BMP_temperature;BMP_pressure;BME280_temperature;BME280_humidity;BME280_pressure;Samples;Min_cycle;Max_cycle;Signal;HPM_P1;HPM_P2
2023/07/20 00:01:55;;;;;;;7.97;2.38;;;;;;;;;;5075335;28;20078;-73
2023/07/20 00:04:21;;;;;;;6.65;2.30;;;;;;;;;;5078945;28;20016;-73
2023/07/20 00:06:47;;;;;;;6.85;2.42;;;;;;;;;;5074527;28;20125;-73
2023/07/20 00:09:13;;;;;;;2.70;2.08;;;;;;;;;;5074547;28;20387;-73
2023/07/20 00:11:39;;;;;;;6.68;2.45;;;;;;;;;;5074199;28;20036;-72
2023/07/20 00:14:06;;;;;;;5.68;2.20;;;;;;;;;;5074184;28;20078;-73
2023/07/20 00:16:32;;;;;;;4.95;2.20;;;;;;;;;;5074407;28;20480;-73
2023/07/20 00:18:58;;;;;;;5.90;2.45;;;;;;;;;;5075260;28;20036;-74
2023/07/20 00:21:24;;;;;;;4.50;2.22;;;;;;;;;;5074992;28;20078;-74
2023/07/20 00:23:50;;;;;;;6.28;2.47;;;;;;;;;;5074068;28;20028;-74
2023/07/20 00:26:17;;;;;;;4.95;2.40;;;;;;;;;;5074133;28;20478;-73
2023/07/20 00:28:43;;;;;;;6.00;2.15;;;;;;;;;;5074248;28;20059;-74
2023/07/20 00:31:09;;;;;;;6.43;2.33;;;;;;;;;;5074911;28;20040;-74
2023/07/20 00:33:35;;;;;;;7.60;2.55;;;;;;;;;;5074495;28;20029;-72
2023/07/20 00:36:02;;;;;;;6.35;2.30;;;;;;;;;;5074189;28;20505;-73
2023/07/20 00:38:28;;;;;;;4.97;2.22;;;;;;;;;;5074046;28;20020;-73
2023/07/20 00:40:54;;;;;;;5.50;2.28;;;;;;;;;;5073960;28;20487;-73
2023/07/20 00:43:20;;;;;;;3.65;2.30;;;;;;;;;;5073688;28;20035;-72
2023/07/20 00:45:46;;;;;;;5.30;2.70;;;;;;;;;;5075027;28;20083;-74
2023/07/20 00:48:12;;;;;;;4.60;2.40;;;;;;;;;;5073740;28;20120;-73
2023/07/20 00:50:40;;;;;;;5.93;2.38;;;;;;;;;;5074615;28;20033;-74
2023/07/20 00:53:06;;;;;;;6.20;2.40;;;;;;;;;;5074160;28;20095;-72
2023/07/20 00:55:32;;;;;;;9.05;3.13;;;;;;;;;;5073611;28;20028;-74
2023/07/20 00:57:58;;;;;;;7.65;3.22;;;;;;;;;;5072188;28;20448;-73
2023/07/20 01:00:24;;;;;;;6.70;3.00;;;;;;;;;;5074127;28;20024;-73
2023/07/20 01:02:51;;;;;;;7.85;3.38;;;;;;;;;;5089415;28;20046;-73
2023/07/20 01:05:18;;;;;;;7.60;3.50;;;;;;;;;;5074177;28;20028;-72
2023/07/20 01:07:49;;;;;;;5.10;2.90;;;;;;;;;;5073427;28;20025;-72
2023/07/20 01:10:19;;;;;;;5.88;3.10;;;;;;;;;;5073432;28;20500;-73
2023/07/20 01:13:05;;;;;;;6.88;3.35;;;;;;;;;;5073061;28;20036;-73
2023/07/20 01:15:32;;;;;;;7.72;3.13;;;;;;;;;;5073499;28;20497;-74
2023/07/20 01:18:01;;;;;;;7.03;3.65;;;;;;;;;;5073811;28;20051;-73
2023/07/20 01:20:27;;;;;;;8.82;3.67;;;;;;;;;;5073742;28;20017;-73
2023/07/20 01:23:01;;;;;;;6.45;3.80;;;;;;;;;;5073271;28;20156;-73
2023/07/20 01:25:41;;;;;;;8.18;3.90;;;;;;;;;;5081717;28;20024;-73
2023/07/20 01:28:16;;;;;;;6.40;3.85;;;;;;;;;;5081824;28;20418;-73
2023/07/20 01:31:01;;;;;;;6.80;4.10;;;;;;;;;;5084045;28;20107;-73
2023/07/20 01:33:28;;;;;;;8.18;3.70;;;;;;;;;;5082135;28;20031;-73
2023/07/20 01:35:55;;;;;;;13.70;4.10;;;;;;;;;;5083223;28;20051;-75
2023/07/20 01:38:22;;;;;;;7.60;3.45;;;;;;;;;;5082833;28;20028;-73
2023/07/20 01:40:48;;;;;;;10.05;4.00;;;;;;;;;;5083479;28;20032;-74
2023/07/20 01:43:14;;;;;;;7.03;3.90;;;;;;;;;;5083883;28;20110;-73
2023/07/20 01:45:40;;;;;;;10.30;4.22;;;;;;;;;;5085310;28;20025;-74
2023/07/20 01:48:06;;;;;;;6.65;3.88;;;;;;;;;;5085612;28;20082;-73
2023/07/20 01:50:34;;;;;;;9.15;4.38;;;;;;;;;;5083679;28;20042;-73
2023/07/20 01:53:00;;;;;;;5.88;4.03;;;;;;;;;;5075919;28;20090;-74
2023/07/20 01:55:26;;;;;;;6.88;4.18;;;;;;;;;;5075842;28;20474;-73
2023/07/20 01:57:52;;;;;;;8.93;4.75;;;;;;;;;;5078744;28;20029;-72
2023/07/20 02:00:21;;;;;;;7.20;4.10;;;;;;;;;;5077809;28;20044;-74
2023/07/20 02:02:47;;;;;;;10.27;5.22;;;;;;;;;;5076556;28;20104;-71
2023/07/20 02:05:13;;;;;;;6.28;4.15;;;;;;;;;;5070612;28;20129;-73
2023/07/20 02:07:39;;;;;;;6.80;4.15;;;;;;;;;;5072226;28;20025;-74
2023/07/20 02:10:05;;;;;;;6.90;4.00;;;;;;;;;;5071943;28;20056;-72
2023/07/20 02:12:31;;;;;;;6.10;4.00;;;;;;;;;;5071285;28;20103;-74
2023/07/20 02:14:57;;;;;;;9.75;4.63;;;;;;;;;;5071882;28;20029;-74
2023/07/20 02:17:23;;;;;;;7.32;4.03;;;;;;;;;;5072745;28;20482;-72
2023/07/20 02:19:57;;;;;;;11.57;4.25;;;;;;;;;;5071848;28;20041;-72
2023/07/20 02:22:23;;;;;;;7.87;4.80;;;;;;;;;;5071409;28;20016;-73
2023/07/20 02:24:50;;;;;;;6.57;4.07;;;;;;;;;;5071991;28;20033;-72
2023/07/20 02:27:16;;;;;;;6.80;5.10;;;;;;;;;;5071763;28;20094;-74
2023/07/20 02:29:42;;;;;;;7.55;4.70;;;;;;;;;;5071790;28;20367;-75
2023/07/20 02:32:09;;;;;;;6.43;5.30;;;;;;;;;;5071612;28;20040;-75
2023/07/20 02:34:35;;;;;;;5.68;4.63;;;;;;;;;;5072004;28;20198;-74
2023/07/20 02:37:01;;;;;;;7.18;5.10;;;;;;;;;;5071727;28;20025;-74
2023/07/20 02:39:28;;;;;;;6.53;4.68;;;;;;;;;;5071427;28;20024;-73
2023/07/20 02:41:54;;;;;;;5.40;4.43;;;;;;;;;;5069941;28;20043;-74
2023/07/20 02:44:20;;;;;;;8.50;5.53;;;;;;;;;;5072766;28;20381;-74
2023/07/20 02:46:46;;;;;;;9.10;5.07;;;;;;;;;;5072965;28;20028;-73
2023/07/20 02:49:12;;;;;;;10.00;5.40;;;;;;;;;;5072866;28;20028;-73
2023/07/20 02:51:38;;;;;;;8.13;5.32;;;;;;;;;;5092715;28;20067;-73
2023/07/20 02:54:04;;;;;;;7.97;5.03;;;;;;;;;;5096764;28;20013;-73
2023/07/20 02:56:30;;;;;;;8.13;4.75;;;;;;;;;;5096632;28;20067;-72
2023/07/20 02:58:57;;;;;;;7.57;5.10;;;;;;;;;;5089199;28;20470;-73
2023/07/20 03:01:23;;;;;;;6.85;5.00;;;;;;;;;;5071303;28;20051;-73
2023/07/20 03:03:49;;;;;;;6.95;5.25;;;;;;;;;;5070741;28;20124;-74
2023/07/20 03:06:16;;;;;;;8.20;5.07;;;;;;;;;;5071482;28;20063;-74
2023/07/20 03:08:47;;;;;;;7.85;5.60;;;;;;;;;;5071455;28;20025;-74
2023/07/20 03:11:13;;;;;;;9.30;6.15;;;;;;;;;;5071409;28;20124;-73
2023/07/20 03:13:39;;;;;;;8.80;4.65;;;;;;;;;;5070147;28;20048;-73
2023/07/20 03:16:04;;;;;;;10.52;5.30;;;;;;;;;;5070879;28;20446;-74
2023/07/20 03:18:30;;;;;;;8.85;5.20;;;;;;;;;;5071663;28;20112;-73
2023/07/20 03:20:57;;;;;;;6.68;5.00;;;;;;;;;;5071242;28;20481;-74
2023/07/20 03:23:23;;;;;;;7.18;5.05;;;;;;;;;;5071023;28;20025;-74
2023/07/20 03:25:49;;;;;;;7.65;4.70;;;;;;;;;;5071629;28;20032;-73
2023/07/20 03:28:15;;;;;;;8.52;5.20;;;;;;;;;;5071411;28;20266;-74
2023/07/20 03:30:41;;;;;;;8.55;5.28;;;;;;;;;;5071536;28;20029;-74
2023/07/20 03:33:07;;;;;;;6.57;4.50;;;;;;;;;;5071357;28;20551;-73
2023/07/20 03:35:33;;;;;;;7.00;5.07;;;;;;;;;;5071399;28;20029;-72
2023/07/20 03:37:59;;;;;;;7.72;5.13;;;;;;;;;;5072018;28;20021;-72
2023/07/20 03:40:25;;;;;;;8.32;4.78;;;;;;;;;;5072748;28;20083;-73
2023/07/20 03:42:51;;;;;;;10.82;5.60;;;;;;;;;;5072081;28;20021;-73
2023/07/20 03:45:17;;;;;;;12.10;5.53;;;;;;;;;;5071696;28;20047;-76
2023/07/20 03:47:44;;;;;;;5.97;4.88;;;;;;;;;;5071659;28;20025;-73
2023/07/20 03:50:10;;;;;;;6.93;5.07;;;;;;;;;;5070941;28;20355;-74
2023/07/20 03:52:36;;;;;;;8.65;5.97;;;;;;;;;;5072257;28;20031;-73
2023/07/20 03:55:02;;;;;;;9.85;5.90;;;;;;;;;;5074795;28;20034;-72
2023/07/20 03:57:28;;;;;;;5.10;4.22;;;;;;;;;;5074458;28;20037;-73
2023/07/20 03:59:55;;;;;;;8.93;6.25;;;;;;;;;;5074316;28;20474;-73
2023/07/20 04:02:21;;;;;;;8.18;4.95;;;;;;;;;;5074226;28;20048;-72
2023/07/20 04:04:47;;;;;;;7.63;5.20;;;;;;;;;;5074312;28;20438;-72
2023/07/20 04:07:13;;;;;;;6.10;5.03;;;;;;;;;;5074191;28;20016;-73
2023/07/20 04:09:40;;;;;;;7.97;4.20;;;;;;;;;;5074072;28;20036;-73
2023/07/20 04:12:06;;;;;;;6.55;4.63;;;;;;;;;;5073944;28;20652;-73
2023/07/20 04:14:32;;;;;;;5.90;4.60;;;;;;;;;;5074036;28;20024;-73
2023/07/20 04:17:00;;;;;;;6.57;4.15;;;;;;;;;;5074153;28;20501;-74
2023/07/20 04:19:26;;;;;;;6.32;4.22;;;;;;;;;;5073978;28;20094;-74
2023/07/20 04:21:52;;;;;;;8.25;3.97;;;;;;;;;;5074029;28;20051;-74
2023/07/20 04:24:18;;;;;;;5.45;3.70;;;;;;;;;;5074268;28;20040;-72
2023/07/20 04:26:44;;;;;;;7.30;4.00;;;;;;;;;;5072669;28;20035;-73
2023/07/20 04:29:10;;;;;;;5.55;4.03;;;;;;;;;;5074317;28;20072;-76
2023/07/20 04:31:36;;;;;;;7.43;4.05;;;;;;;;;;5073801;28;20024;-74
2023/07/20 04:34:02;;;;;;;9.02;3.75;;;;;;;;;;5074689;28;20403;-73
2023/07/20 04:36:27;;;;;;;5.32;3.60;;;;;;;;;;5075059;28;20024;-73
2023/07/20 04:38:54;;;;;;;5.78;3.72;;;;;;;;;;5079255;28;20036;-73
2023/07/20 04:41:20;;;;;;;3.95;3.53;;;;;;;;;;5081929;28;20086;-72
2023/07/20 04:43:46;;;;;;;6.15;3.63;;;;;;;;;;5081877;28;20074;-72
2023/07/20 04:46:12;;;;;;;5.53;3.38;;;;;;;;;;5083103;28;20020;-73
2023/07/20 04:48:40;;;;;;;4.60;2.97;;;;;;;;;;5074144;28;20044;-73
2023/07/20 04:51:06;;;;;;;9.07;3.97;;;;;;;;;;5074078;28;20035;-71
2023/07/20 04:53:32;;;;;;;6.57;3.20;;;;;;;;;;5073569;28;20021;-71
2023/07/20 04:55:58;;;;;;;5.45;3.55;;;;;;;;;;5073629;28;20037;-72
2023/07/20 04:58:24;;;;;;;6.45;3.83;;;;;;;;;;5073783;28;20370;-72
2023/07/20 05:00:50;;;;;;;8.38;3.13;;;;;;;;;;5073716;28;20502;-72
2023/07/20 05:03:16;;;;;;;6.60;3.50;;;;;;;;;;5072784;28;20051;-72
2023/07/20 05:05:42;;;;;;;6.07;2.97;;;;;;;;;;5072062;28;20017;-73
2023/07/20 05:08:09;;;;;;;6.30;3.45;;;;;;;;;;5073166;28;20032;-71
2023/07/20 05:10:35;;;;;;;11.93;3.13;;;;;;;;;;5073307;28;20027;-72
2023/07/20 05:13:01;;;;;;;8.32;3.40;;;;;;;;;;5072759;28;20040;-71
2023/07/20 05:15:27;;;;;;;6.85;3.60;;;;;;;;;;5073158;28;20051;-72
2023/07/20 05:17:53;;;;;;;6.32;3.22;;;;;;;;;;5073268;28;20066;-72
2023/07/20 05:20:20;;;;;;;8.05;2.90;;;;;;;;;;5072781;28;20431;-71
2023/07/20 05:22:46;;;;;;;9.75;3.75;;;;;;;;;;5072644;28;20016;-71
2023/07/20 05:25:12;;;;;;;9.93;3.47;;;;;;;;;;5072852;28;20021;-74
2023/07/20 05:27:38;;;;;;;8.30;3.53;;;;;;;;;;5073205;28;20035;-74
2023/07/20 05:30:05;;;;;;;7.93;3.83;;;;;;;;;;5073646;28;20020;-75
2023/07/20 05:32:31;;;;;;;7.70;4.00;;;;;;;;;;5074013;28;20059;-73
2023/07/20 05:34:57;;;;;;;11.18;3.33;;;;;;;;;;5074695;28;20021;-72
2023/07/20 05:37:23;;;;;;;5.57;3.28;;;;;;;;;;5073290;28;20040;-75
2023/07/20 05:39:50;;;;;;;7.25;3.47;;;;;;;;;;5072426;28;20436;-74
2023/07/20 05:42:16;;;;;;;6.32;3.35;;;;;;;;;;5072281;28;20025;-75
2023/07/20 05:44:42;;;;;;;8.13;3.00;;;;;;;;;;5074021;28;20049;-73
2023/07/20 05:47:08;;;;;;;8.63;2.90;;;;;;;;;;5072688;28;20032;-74
2023/07/20 05:49:35;;;;;;;10.25;3.30;;;;;;;;;;5073926;28;20021;-76
2023/07/20 05:52:01;;;;;;;7.18;2.90;;;;;;;;;;5073389;28;20056;-80
2023/07/20 05:54:28;;;;;;;9.88;3.30;;;;;;;;;;5073104;28;20489;-73
2023/07/20 05:56:54;;;;;;;5.13;2.20;;;;;;;;;;5072144;28;20024;-75
2023/07/20 05:59:20;;;;;;;10.52;3.38;;;;;;;;;;5072462;28;20035;-75
2023/07/20 06:01:49;;;;;;;8.25;2.72;;;;;;;;;;5069834;28;20047;-73
2023/07/20 06:04:15;;;;;;;9.23;1.90;;;;;;;;;;5067025;28;20173;-73
2023/07/20 06:06:41;;;;;;;6.85;2.60;;;;;;;;;;5071971;28;20423;-73
2023/07/20 06:09:11;;;;;;;10.25;2.85;;;;;;;;;;5072981;28;20189;-77
2023/07/20 06:11:37;;;;;;;5.78;2.40;;;;;;;;;;5074419;28;20031;-79
2023/07/20 06:14:03;;;;;;;5.88;2.00;;;;;;;;;;5073668;28;20024;-74
2023/07/20 06:16:29;;;;;;;5.25;1.90;;;;;;;;;;5072430;28;20106;-74
2023/07/20 06:18:56;;;;;;;10.80;2.47;;;;;;;;;;5072436;28;20035;-75
2023/07/20 06:21:22;;;;;;;9.98;2.78;;;;;;;;;;5071792;28;20027;-75
2023/07/20 06:23:48;;;;;;;4.80;1.90;;;;;;;;;;5071892;28;20104;-74
2023/07/20 06:26:14;;;;;;;4.72;2.00;;;;;;;;;;5074206;28;20104;-74
2023/07/20 06:28:40;;;;;;;7.78;1.88;;;;;;;;;;5073401;28;20090;-74
2023/07/20 06:31:06;;;;;;;7.82;1.92;;;;;;;;;;5071408;28;20132;-76
2023/07/20 06:33:32;;;;;;;5.30;1.35;;;;;;;;;;5071155;28;20032;-74
2023/07/20 06:35:58;;;;;;;6.50;1.60;;;;;;;;;;5071755;28;20041;-77
2023/07/20 06:38:24;;;;;;;7.43;2.17;;;;;;;;;;5071403;28;20027;-75
2023/07/20 06:40:50;;;;;;;8.20;1.58;;;;;;;;;;5071217;28;20488;-74
2023/07/20 06:43:16;;;;;;;7.00;1.90;;;;;;;;;;5079823;28;20029;-74
2023/07/20 06:45:42;;;;;;;6.53;1.50;;;;;;;;;;5095064;28;20115;-76
2023/07/20 06:48:08;;;;;;;6.80;1.38;;;;;;;;;;5083877;28;20052;-75
2023/07/20 06:50:34;;;;;;;4.82;1.50;;;;;;;;;;5083176;28;20031;-72
2023/07/20 06:53:03;;;;;;;7.68;1.75;;;;;;;;;;5086064;28;20056;-75
2023/07/20 06:55:29;;;;;;;7.90;1.63;;;;;;;;;;5073667;28;20027;-74
2023/07/20 06:57:55;;;;;;;29.63;2.65;;;;;;;;;;5071234;28;20020;-75
2023/07/20 07:00:22;;;;;;;9.35;2.15;;;;;;;;;;5072729;28;20029;-74
2023/07/20 07:02:47;;;;;;;8.18;2.13;;;;;;;;;;5071376;28;20020;-74
2023/07/20 07:05:15;;;;;;;14.00;3.55;;;;;;;;;;5072249;28;20626;-74
2023/07/20 07:07:41;;;;;;;18.60;6.05;;;;;;;;;;5071280;28;20028;-74
2023/07/20 07:10:08;;;;;;;11.20;2.78;;;;;;;;;;5071823;28;20032;-75
2023/07/20 07:12:35;;;;;;;9.45;2.20;;;;;;;;;;5069722;28;20075;-74
2023/07/20 07:15:01;;;;;;;12.10;2.88;;;;;;;;;;5073044;28;20033;-74
2023/07/20 07:17:27;;;;;;;9.05;2.72;;;;;;;;;;5071865;28;20033;-73
2023/07/20 07:19:54;;;;;;;7.00;2.00;;;;;;;;;;5069868;28;20070;-74
2023/07/20 07:22:21;;;;;;;14.25;6.25;;;;;;;;;;5072041;28;20017;-74
2023/07/20 07:24:47;;;;;;;46.83;19.13;;;;;;;;;;5070664;28;20020;-74
2023/07/20 07:27:15;;;;;;;20.40;7.95;;;;;;;;;;5071835;28;20095;-76
2023/07/20 07:29:44;;;;;;;15.90;5.82;;;;;;;;;;5074524;28;20012;-74
2023/07/20 07:32:10;;;;;;;34.88;14.60;;;;;;;;;;5072840;28;20017;-74
2023/07/20 07:34:36;;;;;;;18.48;7.68;;;;;;;;;;5074554;28;20497;-74
2023/07/20 07:37:03;;;;;;;18.13;7.68;;;;;;;;;;5078644;28;20398;-74
2023/07/20 07:39:30;;;;;;;8.57;2.17;;;;;;;;;;5079034;28;20021;-74
2023/07/20 07:41:56;;;;;;;16.77;6.03;;;;;;;;;;5076138;28;20040;-73
2023/07/20 07:44:22;;;;;;;14.82;4.50;;;;;;;;;;5074407;28;20388;-73
2023/07/20 07:46:48;;;;;;;11.38;2.60;;;;;;;;;;5072949;28;20020;-74
2023/07/20 07:49:14;;;;;;;10.70;3.42;;;;;;;;;;5073548;28;20028;-73
2023/07/20 07:51:40;;;;;;;11.25;4.28;;;;;;;;;;5075464;28;20036;-74
2023/07/20 07:54:06;;;;;;;9.50;3.05;;;;;;;;;;5074080;28;20036;-73
2023/07/20 07:56:32;;;;;;;15.43;3.13;;;;;;;;;;5078803;28;20028;-74
2023/07/20 07:58:58;;;;;;;9.80;3.10;;;;;;;;;;5077961;28;20103;-77
2023/07/20 08:01:24;;;;;;;9.23;3.10;;;;;;;;;;5077935;28;20397;-74
2023/07/20 08:03:51;;;;;;;9.02;2.65;;;;;;;;;;5077901;28;20013;-74
2023/07/20 08:06:17;;;;;;;14.25;3.47;;;;;;;;;;5074903;28;20016;-74
2023/07/20 08:08:43;;;;;;;9.38;3.13;;;;;;;;;;5074359;28;20020;-74
2023/07/20 08:11:10;;;;;;;11.70;3.30;;;;;;;;;;5075443;28;20055;-75
2023/07/20 08:13:36;;;;;;;10.43;3.50;;;;;;;;;;5078531;28;20059;-75
2023/07/20 08:16:02;;;;;;;15.05;2.85;;;;;;;;;;5080511;28;20024;-75
2023/07/20 08:18:28;;;;;;;12.73;2.58;;;;;;;;;;5075029;28;20028;-74
2023/07/20 08:20:54;;;;;;;7.90;2.53;;;;;;;;;;5078173;28;20051;-73
2023/07/20 08:23:21;;;;;;;12.80;2.67;;;;;;;;;;5074330;28;20033;-72
2023/07/20 08:25:47;;;;;;;13.60;3.15;;;;;;;;;;5074234;28;20444;-73
2023/07/20 08:28:14;;;;;;;9.55;2.42;;;;;;;;;;5075284;28;20033;-74
2023/07/20 08:30:43;;;;;;;10.98;2.42;;;;;;;;;;5075419;28;20067;-71
2023/07/20 08:33:16;;;;;;;10.98;2.75;;;;;;;;;;5075010;28;20102;-75
2023/07/20 08:35:42;;;;;;;18.73;2.97;;;;;;;;;;5076253;28;20454;-74
2023/07/20 08:38:08;;;;;;;11.98;2.25;;;;;;;;;;5075935;28;20036;-73
2023/07/20 08:40:39;;;;;;;7.63;1.90;;;;;;;;;;5074488;28;20036;-74
2023/07/20 08:43:05;;;;;;;9.90;2.00;;;;;;;;;;5076486;28;20024;-74
2023/07/20 08:45:33;;;;;;;8.75;2.22;;;;;;;;;;5073735;28;20025;-73
2023/07/20 08:48:01;;;;;;;16.75;2.78;;;;;;;;;;5073706;28;20154;-75
2023/07/20 08:50:29;;;;;;;16.00;3.10;;;;;;;;;;5074525;28;20032;-74
2023/07/20 08:52:57;;;;;;;11.25;2.45;;;;;;;;;;5076228;28;20056;-75
2023/07/20 08:55:23;;;;;;;7.90;1.90;;;;;;;;;;5076840;28;20506;-75
2023/07/20 08:57:56;;;;;;;8.27;2.17;;;;;;;;;;5074013;28;20028;-74
2023/07/20 09:00:23;;;;;;;12.65;1.90;;;;;;;;;;5073184;28;20093;-74
2023/07/20 09:02:53;;;;;;;11.63;1.83;;;;;;;;;;5072973;28;20116;-75
2023/07/20 09:05:20;;;;;;;8.48;1.60;;;;;;;;;;5073184;28;20016;-74
2023/07/20 09:07:46;;;;;;;10.30;1.60;;;;;;;;;;5075014;28;20044;-74
2023/07/20 09:10:12;;;;;;;10.32;1.70;;;;;;;;;;5073031;28;20064;-73
2023/07/20 09:12:39;;;;;;;7.03;1.73;;;;;;;;;;5072532;28;20028;-73
2023/07/20 09:15:06;;;;;;;8.57;1.70;;;;;;;;;;5073144;28;20029;-76
2023/07/20 09:17:32;;;;;;;8.35;1.58;;;;;;;;;;5073703;28;20055;-76
2023/07/20 09:19:58;;;;;;;11.90;1.85;;;;;;;;;;5072975;28;20028;-73
2023/07/20 09:22:31;;;;;;;6.57;1.77;;;;;;;;;;5072687;28;20025;-77
2023/07/20 09:24:57;;;;;;;9.55;1.70;;;;;;;;;;5072973;28;20059;-74
2023/07/20 09:27:23;;;;;;;7.95;1.50;;;;;;;;;;5073983;28;20086;-76
2023/07/20 09:29:52;;;;;;;4.50;1.58;;;;;;;;;;5056343;28;20127;-75
2023/07/20 09:32:21;;;;;;;10.27;1.80;;;;;;;;;;5072336;28;20228;-74
2023/07/20 09:34:48;;;;;;;9.70;2.50;;;;;;;;;;5072717;28;20106;-76
2023/07/20 09:37:14;;;;;;;6.85;1.90;;;;;;;;;;5075153;28;20051;-76
2023/07/20 09:39:46;;;;;;;6.95;1.40;;;;;;;;;;5075335;28;20409;-76
2023/07/20 09:42:13;;;;;;;7.03;1.40;;;;;;;;;;5075311;28;20031;-75
2023/07/20 09:44:39;;;;;;;8.65;1.27;;;;;;;;;;5078864;28;20386;-75
2023/07/20 09:47:06;;;;;;;3.95;1.23;;;;;;;;;;5077388;28;20024;-75
2023/07/20 09:49:32;;;;;;;5.68;1.90;;;;;;;;;;5074854;28;20024;-76
2023/07/20 09:52:00;;;;;;;4.32;1.50;;;;;;;;;;5072708;28;20040;-76
2023/07/20 09:54:28;;;;;;;8.98;1.83;;;;;;;;;;5073251;28;20021;-79
2023/07/20 09:56:54;;;;;;;5.30;1.33;;;;;;;;;;5079074;28;20103;-75
2023/07/20 09:59:20;;;;;;;5.45;1.17;;;;;;;;;;5073187;28;20031;-76
2023/07/20 10:01:46;;;;;;;11.30;1.60;;;;;;;;;;5074315;28;20029;-75
2023/07/20 10:04:13;;;;;;;12.55;1.83;;;;;;;;;;5072344;28;20375;-75
2023/07/20 10:06:43;;;;;;;7.95;1.33;;;;;;;;;;5072575;28;20109;-76
2023/07/20 10:09:11;;;;;;;5.32;1.45;;;;;;;;;;5073014;28;20017;-75
2023/07/20 10:11:37;;;;;;;8.20;1.50;;;;;;;;;;5075588;28;20064;-75
2023/07/20 10:14:08;;;;;;;11.27;1.80;;;;;;;;;;5074436;28;20020;-78
2023/07/20 10:16:39;;;;;;;8.75;1.58;;;;;;;;;;5073414;28;20032;-74
2023/07/20 10:19:20;;;;;;;5.35;1.73;;;;;;;;;;5072239;28;20028;-74
2023/07/20 10:21:52;;;;;;;6.90;1.42;;;;;;;;;;5071614;28;20021;-76
2023/07/20 10:24:18;;;;;;;4.75;1.02;;;;;;;;;;5071788;28;20021;-74
2023/07/20 10:26:44;;;;;;;8.55;4.38;;;;;;;;;;5072531;28;20098;-75
2023/07/20 10:29:10;;;;;;;5.82;1.60;;;;;;;;;;5072919;28;20029;-75
2023/07/20 10:31:37;;;;;;;6.40;1.55;;;;;;;;;;5073729;28;20082;-74
2023/07/20 10:34:03;;;;;;;8.50;1.35;;;;;;;;;;5071839;28;20474;-74
2023/07/20 10:36:29;;;;;;;10.48;1.40;;;;;;;;;;5073670;28;20036;-74
2023/07/20 10:38:57;;;;;;;7.85;1.38;;;;;;;;;;5070889;28;20016;-76
2023/07/20 10:41:25;;;;;;;5.70;1.30;;;;;;;;;;5071728;28;20529;-74
2023/07/20 10:43:51;;;;;;;8.18;0.90;;;;;;;;;;5070353;28;20024;-73
2023/07/20 10:46:34;;;;;;;7.13;1.27;;;;;;;;;;5072177;28;20497;-75
2023/07/20 10:49:02;;;;;;;9.93;1.33;;;;;;;;;;5072418;28;20024;-75
2023/07/20 10:51:28;;;;;;;5.32;1.00;;;;;;;;;;5072379;28;20017;-74
2023/07/20 10:53:56;;;;;;;6.95;1.40;;;;;;;;;;5071855;28;20037;-73
2023/07/20 10:56:23;;;;;;;6.15;1.15;;;;;;;;;;5073866;28;20024;-75
2023/07/20 10:58:49;;;;;;;4.03;1.08;;;;;;;;;;5075416;28;20054;-75
2023/07/20 11:01:18;;;;;;;6.95;1.40;;;;;;;;;;5071798;28;20032;-76
2023/07/20 11:03:50;;;;;;;6.88;1.30;;;;;;;;;;5076927;28;20019;-75
2023/07/20 11:06:28;;;;;;;9.75;1.20;;;;;;;;;;5077905;28;20107;-74
2023/07/20 11:09:04;;;;;;;13.68;1.77;;;;;;;;;;5075576;28;20086;-75
2023/07/20 11:11:31;;;;;;;7.95;1.35;;;;;;;;;;5075703;28;20047;-74
2023/07/20 11:14:01;;;;;;;8.13;1.48;;;;;;;;;;5078468;28;20064;-73
2023/07/20 11:16:34;;;;;;;5.53;1.10;;;;;;;;;;5078931;28;20105;-74
2023/07/20 11:19:00;;;;;;;10.65;1.73;;;;;;;;;;5090140;28;20025;-76
2023/07/20 11:21:27;;;;;;;6.72;1.23;;;;;;;;;;5100227;28;20088;-74
2023/07/20 11:23:53;;;;;;;5.88;1.23;;;;;;;;;;5098089;28;20135;-75
2023/07/20 11:26:19;;;;;;;6.68;1.00;;;;;;;;;;5100089;28;20082;-75
2023/07/20 11:28:52;;;;;;;5.10;0.95;;;;;;;;;;5088029;28;20032;-75
2023/07/20 11:31:19;;;;;;;3.17;0.80;;;;;;;;;;5075027;28;20074;-77
2023/07/20 11:33:46;;;;;;;4.25;1.10;;;;;;;;;;5074095;28;20033;-74
2023/07/20 11:36:12;;;;;;;3.72;1.10;;;;;;;;;;5074950;28;20029;-75
2023/07/20 11:38:38;;;;;;;3.60;0.93;;;;;;;;;;5074697;28;20032;-74
2023/07/20 11:41:04;;;;;;;2.10;0.77;;;;;;;;;;5074864;28;20432;-74
2023/07/20 11:43:31;;;;;;;6.88;1.17;;;;;;;;;;5073955;28;20024;-77
2023/07/20 11:45:57;;;;;;;3.35;1.00;;;;;;;;;;5074931;28;20052;-76
2023/07/20 11:48:23;;;;;;;6.13;1.10;;;;;;;;;;5074643;28;20034;-74
2023/07/20 11:50:49;;;;;;;6.95;1.73;;;;;;;;;;5075295;28;20028;-74
2023/07/20 11:53:16;;;;;;;5.43;1.48;;;;;;;;;;5074362;28;20031;-74
2023/07/20 11:55:42;;;;;;;6.30;1.52;;;;;;;;;;5074707;28;20078;-73
2023/07/20 11:58:09;;;;;;;5.78;1.13;;;;;;;;;;5074249;28;20043;-73
2023/07/20 12:00:36;;;;;;;7.85;1.20;;;;;;;;;;5074343;28;20023;-73
2023/07/20 12:03:02;;;;;;;15.40;1.35;;;;;;;;;;5073341;28;20394;-76
2023/07/20 12:05:28;;;;;;;5.65;1.10;;;;;;;;;;5074162;28;20031;-78
2023/07/20 12:07:55;;;;;;;8.45;1.60;;;;;;;;;;5072829;28;20049;-77
2023/07/20 12:10:31;;;;;;;11.70;1.98;;;;;;;;;;5074594;28;20056;-78
2023/07/20 12:13:03;;;;;;;12.15;1.60;;;;;;;;;;5074435;28;20063;-75
2023/07/20 12:15:30;;;;;;;9.60;2.00;;;;;;;;;;5074503;28;20024;-75
2023/07/20 12:18:00;;;;;;;9.57;1.55;;;;;;;;;;5075407;28;20021;-76
2023/07/20 12:20:27;;;;;;;10.73;1.83;;;;;;;;;;5075102;28;20025;-77
2023/07/20 12:22:54;;;;;;;13.68;2.42;;;;;;;;;;5074887;28;20501;-76
2023/07/20 12:25:20;;;;;;;13.00;2.13;;;;;;;;;;5075051;28;20025;-77
2023/07/20 12:27:47;;;;;;;7.65;1.95;;;;;;;;;;5075135;28;20142;-76
2023/07/20 12:30:13;;;;;;;12.52;1.80;;;;;;;;;;5076156;28;20039;-78
2023/07/20 12:32:39;;;;;;;8.73;1.42;;;;;;;;;;5078474;28;20020;-81
2023/07/20 12:35:06;;;;;;;12.15;1.83;;;;;;;;;;5077078;28;20496;-74
2023/07/20 12:37:32;;;;;;;8.13;1.77;;;;;;;;;;5074808;28;20025;-75
2023/07/20 12:39:58;;;;;;;9.25;2.00;;;;;;;;;;5075583;28;20032;-74
2023/07/20 12:42:24;;;;;;;8.13;1.70;;;;;;;;;;5075789;28;20021;-75
2023/07/20 12:44:50;;;;;;;8.00;1.73;;;;;;;;;;5077924;28;20071;-75
2023/07/20 12:47:17;;;;;;;5.90;1.45;;;;;;;;;;5074196;28;20021;-77
2023/07/20 12:49:46;;;;;;;6.35;1.30;;;;;;;;;;5072895;28;20020;-76
2023/07/20 12:52:13;;;;;;;5.25;1.27;;;;;;;;;;5074418;28;20023;-75
2023/07/20 12:54:39;;;;;;;7.00;1.20;;;;;;;;;;5081925;28;20393;-74
2023/07/20 12:57:05;;;;;;;6.18;1.70;;;;;;;;;;5073604;28;20029;-74
2023/07/20 12:59:31;;;;;;;5.50;1.55;;;;;;;;;;5073136;28;20028;-76
2023/07/20 13:01:57;;;;;;;4.10;1.05;;;;;;;;;;5073376;28;20418;-74
2023/07/20 13:04:23;;;;;;;5.03;1.25;;;;;;;;;;5075889;28;20075;-74
2023/07/20 13:06:49;;;;;;;4.47;1.10;;;;;;;;;;5073202;28;20056;-75
2023/07/20 13:09:15;;;;;;;5.30;1.33;;;;;;;;;;5071788;28;20036;-76
2023/07/20 13:11:40;;;;;;;5.28;1.20;;;;;;;;;;5081481;28;20125;-75
2023/07/20 13:14:06;;;;;;;4.55;1.38;;;;;;;;;;5072228;28;20024;-75
2023/07/20 13:16:33;;;;;;;6.03;1.20;;;;;;;;;;5073522;28;20070;-74
2023/07/20 13:18:59;;;;;;;6.53;1.00;;;;;;;;;;5076728;28;20028;-75
2023/07/20 13:21:25;;;;;;;10.30;1.80;;;;;;;;;;5073276;28;20028;-73
2023/07/20 13:23:51;;;;;;;7.88;3.70;;;;;;;;;;5064008;28;20443;-74
2023/07/20 13:26:17;;;;;;;9.05;1.73;;;;;;;;;;5072515;28;20029;-73
2023/07/20 13:28:43;;;;;;;9.20;1.98;;;;;;;;;;5079537;28;20063;-73
2023/07/20 13:31:10;;;;;;;5.60;1.70;;;;;;;;;;5073706;28;20074;-74
2023/07/20 13:33:36;;;;;;;8.05;1.65;;;;;;;;;;5072479;28;20059;-74
2023/07/20 13:36:05;;;;;;;11.77;1.60;;;;;;;;;;5087366;28;20088;-74
2023/07/20 13:38:31;;;;;;;8.23;1.80;;;;;;;;;;5090585;28;20037;-75
2023/07/20 13:40:57;;;;;;;6.75;1.60;;;;;;;;;;5077466;28;20028;-75
2023/07/20 13:43:23;;;;;;;3.67;0.80;;;;;;;;;;5077584;28;20050;-75
2023/07/20 13:45:49;;;;;;;3.17;0.95;;;;;;;;;;5086363;28;20417;-74
2023/07/20 13:48:15;;;;;;;5.75;1.20;;;;;;;;;;5080369;28;20103;-75
2023/07/20 13:50:41;;;;;;;3.50;1.00;;;;;;;;;;5077341;28;20080;-75
2023/07/20 13:53:07;;;;;;;5.85;1.00;;;;;;;;;;5075032;28;20067;-74
2023/07/20 13:55:36;;;;;;;4.40;0.90;;;;;;;;;;5074633;28;20112;-75
2023/07/20 13:58:02;;;;;;;4.13;1.20;;;;;;;;;;5072937;28;20029;-75
2023/07/20 14:00:32;;;;;;;5.47;1.48;;;;;;;;;;5072023;28;20028;-75
2023/07/20 14:02:58;;;;;;;5.03;1.45;;;;;;;;;;5071764;28;20047;-73
2023/07/20 14:05:24;;;;;;;5.30;1.20;;;;;;;;;;5072329;28;20102;-75
2023/07/20 14:07:50;;;;;;;5.18;1.17;;;;;;;;;;5071898;28;20116;-74
2023/07/20 14:10:16;;;;;;;5.78;1.30;;;;;;;;;;5071950;28;20032;-76
2023/07/20 14:12:43;;;;;;;5.93;1.63;;;;;;;;;;5071852;28;20036;-74
2023/07/20 14:15:10;;;;;;;10.45;2.28;;;;;;;;;;5072562;28;20040;-74
2023/07/20 14:17:36;;;;;;;13.02;1.70;;;;;;;;;;5072521;28;20028;-77
2023/07/20 14:20:05;;;;;;;8.00;1.70;;;;;;;;;;5080534;28;20478;-76
2023/07/20 14:22:31;;;;;;;5.47;1.23;;;;;;;;;;5080237;28;20028;-75
2023/07/20 14:24:57;;;;;;;9.18;1.63;;;;;;;;;;5074008;28;20088;-76
2023/07/20 14:27:23;;;;;;;4.13;1.00;;;;;;;;;;5084108;28;20025;-76
2023/07/20 14:29:49;;;;;;;5.47;1.40;;;;;;;;;;5072716;28;20073;-75
2023/07/20 14:32:15;;;;;;;4.53;1.27;;;;;;;;;;5071572;28;20028;-74
2023/07/20 14:34:41;;;;;;;4.97;1.40;;;;;;;;;;5072089;28;20023;-76
2023/07/20 14:37:07;;;;;;;4.15;1.00;;;;;;;;;;5072055;28;20013;-76
2023/07/20 14:39:33;;;;;;;7.25;1.40;;;;;;;;;;5072480;28;20520;-76